Data for 04/13/2015

Time Sea-Level Adjusted Pressure Absolute Pressure Temperature Relative Humidity Dew Point   
(mb) (inHg) (mb) (inHg) (C) (F) (%) (C) (F)
00:05 1021 30.15 850 25.1 3.8 38.8 38 -9.2 15.5
00:10 1021 30.15 850 25.1 3.7 38.7 39 -8.9 16
00:15 1021 30.15 850 25.1 3.6 38.4 40 -8.7 16.3
00:20 1021 30.15 850 25.1 3.3 37.9 46 -7.2 19.1
00:25 1021 30.15 850 25.1 2.7 36.9 49 -6.9 19.5
00:30 1021 30.15 850 25.1 2.4 36.3 52 -6.5 20.3
00:35 1021 30.15 850 25.1 2 35.6 56 -5.9 21.5
00:40 1021 30.15 850 25.1 1.5 34.8 60 -5.5 22.1
00:45 1021 30.15 850 25.1 1.4 34.6 58 -5.9 21.5
00:50 1021 30.15 850 25.1 1.3 34.4 60 -5.7 21.8
00:55 1021 30.15 850 25.1 1.4 34.4 59 -5.9 21.4
01:00 1021 30.15 850 25.1 1.3 34.3 59 -5.9 21.3
01:05 1021 30.15 850 25.1 1.3 34.3 58 -6.1 21.1
01:10 1021 30.15 850 25.1 1.2 34.2 58 -6.1 21.1
01:15 1021 30.15 850 25.1 1 33.8 61 -5.8 21.6
01:20 1021 30.15 850 25.1 0.8 33.5 61 -6 21.3
01:25 1021 30.15 850 25.1 1 33.8 60 -6 21.2
01:30 1021 30.15 850 25.1 1 33.9 60 -5.9 21.4
01:35 1021 30.15 850 25.1 0.9 33.7 61 -5.7 21.8
01:40 1021 30.15 850 25.1 0.8 33.5 62 -5.8 21.6
01:45 1021 30.15 850 25.1 0.9 33.6 60 -6 21.2
01:50 1021 30.15 850 25.1 1 33.8 60 -5.9 21.3
01:55 1021 30.15 850 25.1 1.1 34 60 -5.7 21.7
02:00 1021 30.15 850 25.1 1 33.8 58 -6.3 20.6
02:05 1021 30.15 850 25.1 1.7 35 50 -7.7 18.1
02:10 1021 30.15 850 25.1 2.3 36.1 45 -8.4 16.8
02:15 1021 30.15 850 25.1 2.4 36.3 50 -6.9 19.6
02:20 1021 30.15 850 25.1 1.7 35 54 -6.6 20.1
02:25 1021 30.15 850 25.1 1.5 34.7 55 -6.6 20.2
02:30 1021 30.15 850 25.1 1.2 34.1 56 -6.6 20.1
02:35 1021 30.15 850 25.1 1 33.9 56 -6.8 19.8
02:40 1021 30.15 850 25.1 1 33.9 56 -6.7 19.9
02:45 1021 30.15 850 25.1 0.8 33.5 58 -6.5 20.3
02:50 1021 30.15 850 25.1 0.5 32.9 60 -6.4 20.4
02:55 1021 30.15 850 25.1 -0 32 61 -6.6 20.2
03:00 1021 30.15 850 25.1 -0.2 31.6 61 -6.8 19.8
03:05 1021 30.15 850 25.1 -0 32 60 -6.8 19.8
03:10 1021 30.15 850 25.1 0 32.1 59 -7 19.4
03:15 1021 30.15 850 25.1 0.1 32.2 58 -7.1 19.2
03:20 1021 30.15 850 25.1 0.1 32.2 59 -7.1 19.3
03:25 1021 30.15 850 25.1 0.1 32.1 58 -7.3 18.8
03:30 1021 30.15 850 25.1 0.2 32.3 58 -7.1 19.2
03:35 1021 30.15 850 25.1 -0.1 31.9 58 -7.5 18.5
03:40 1021 30.15 850 25.1 0.1 32.2 58 -7.3 18.9
03:45 1021 30.15 850 25.1 0 32 57 -7.5 18.5
03:50 1021 30.15 850 25.1 0 32.1 57 -7.4 18.7
03:55 1021 30.15 850 25.1 -0.1 31.8 57 -7.6 18.4
04:00 1021 30.15 850 25.1 -0.1 31.8 57 -7.7 18.2
04:05 1021 30.15 850 25.1 -0.2 31.7 57 -7.7 18.2
04:10 1021 30.15 851 25.13 -0.2 31.7 56 -8 17.6
04:15 1021 30.15 851 25.13 0 32.1 54 -8.2 17.3
04:20 1021 30.15 851 25.13 0.4 32.7 52 -8.2 17.2
04:25 1021 30.15 851 25.13 0.3 32.5 57 -7.4 18.8
04:30 1021 30.15 851 25.13 -0.1 31.9 58 -7.3 18.9
04:35 1021 30.15 851 25.13 -0.2 31.6 60 -7 19.4
04:40 1021 30.15 851 25.13 -0.4 31.2 61 -7 19.4
04:45 1021 30.15 851 25.13 -0.3 31.4 59 -7.3 18.9
04:50 1022 30.18 851 25.13 -0.2 31.7 60 -7.1 19.3
04:55 1021 30.15 851 25.13 -0.2 31.6 60 -7 19.4
05:00 1021 30.15 851 25.13 -0.1 31.9 59 -7.2 19
05:05 1021 30.15 851 25.13 -0 31.9 58 -7.3 18.9
05:10 1021 30.15 851 25.13 -0.1 31.7 59 -7.3 18.8
05:15 1021 30.15 851 25.13 -0.2 31.7 59 -7.3 18.9
05:20 1021 30.15 851 25.13 -0.4 31.3 58 -7.7 18.1
05:25 1021 30.15 851 25.13 -0.4 31.2 58 -7.8 18
05:30 1021 30.15 851 25.13 -0.5 31.1 58 -7.8 18
05:35 1021 30.15 851 25.13 -0.4 31.2 57 -7.9 17.7
05:40 1021 30.15 851 25.13 -0.3 31.5 57 -7.9 17.8
05:45 1021 30.15 850 25.1 -0.2 31.6 56 -8 17.6
05:50 1021 30.15 851 25.13 0 32.1 55 -7.9 17.7
05:55 1021 30.15 851 25.13 -0.1 31.9 56 -7.9 17.7
06:00 1021 30.15 851 25.13 0.1 32.1 54 -8.1 17.5
06:05 1021 30.15 851 25.13 0.2 32.4 54 -8 17.7
06:10 1021 30.15 851 25.13 0.2 32.3 55 -7.9 17.8
06:15 1021 30.15 851 25.13 0.2 32.3 55 -7.7 18.1
06:20 1021 30.15 851 25.13 0.1 32.1 56 -7.7 18.1
06:25 1021 30.15 851 25.13 -0 32 57 -7.6 18.4
06:30 1021 30.15 851 25.13 -0.2 31.7 57 -7.6 18.4
06:35 1022 30.18 851 25.13 -0.1 31.7 57 -7.7 18.2
06:40 1022 30.18 851 25.13 -0 32 57 -7.7 18.2
06:45 1022 30.18 851 25.13 0.1 32.2 56 -7.6 18.4
06:50 1022 30.18 851 25.13 0.4 32.7 54 -8 17.6
06:55 1022 30.18 851 25.13 0.9 33.7 52 -7.8 17.9
07:00 1021 30.15 851 25.13 1.4 34.5 50 -8 17.6
07:05 1021 30.15 851 25.13 1.8 35.3 49 -7.8 17.9
07:10 1021 30.15 851 25.13 2.1 35.8 49 -7.6 18.3
07:15 1021 30.15 851 25.13 2.4 36.4 48 -7.5 18.4
07:20 1021 30.15 851 25.13 2.9 37.1 47 -7.5 18.6
07:25 1021 30.15 851 25.13 3.2 37.8 46 -7.4 18.7
07:30 1021 30.15 851 25.13 3.5 38.3 45 -7.4 18.7
07:35 1021 30.15 850 25.1 3.9 39 43 -7.4 18.6
07:40 1021 30.15 850 25.1 3.9 39.1 42 -7.9 17.8
07:45 1021 30.15 850 25.1 4 39.1 42 -7.8 17.9
07:50 1021 30.15 850 25.1 4.4 39.9 40 -8 17.7
07:55 1021 30.15 850 25.1 5.1 41.3 38 -8 17.7
08:00 1021 30.15 850 25.1 5.3 41.5 38 -7.9 17.8
08:05 1021 30.15 850 25.1 5.6 42.2 38 -7.6 18.2
08:10 1021 30.15 850 25.1 5.8 42.4 37 -7.8 18
08:15 1021 30.15 850 25.1 6.1 43 36 -7.8 17.9
08:20 1021 30.15 850 25.1 6.6 43.9 34 -8.2 17.3
08:25 1021 30.15 850 25.1 6.9 44.5 34 -7.9 17.8
08:30 1021 30.15 850 25.1 7.7 45.9 31 -8.2 17.2
08:35 1021 30.15 850 25.1 7.9 46.3 30 -8.5 16.6
08:40 1021 30.15 850 25.1 8.3 46.9 28 -9.1 15.7
08:45 1021 30.15 850 25.1 8 46.3 30 -8.7 16.3
08:50 1021 30.15 850 25.1 8.1 46.6 29 -8.7 16.4
08:55 1021 30.15 850 25.1 8.1 46.6 27 -10 14
09:00 1021 30.15 850 25.1 8.7 47.6 28 -8.8 16.1
09:05 1021 30.15 850 25.1 8.2 46.7 29 -8.9 16
09:10 1021 30.15 850 25.1 8.6 47.5 28 -9 15.8
09:15 1021 30.15 850 25.1 9.2 48.6 27 -8.8 16.2
09:20 1021 30.15 850 25.1 10 50 25 -9 15.9
09:25 1021 30.15 850 25.1 9.7 49.5 27 -8.6 16.6
09:30 1021 30.15 850 25.1 10 50 26 -8.7 16.3
09:35 1020 30.12 850 25.1 10.8 51.4 24 -9 15.7
09:40 1020 30.12 850 25.1 11.3 52.4 23 -9 15.8
09:45 1020 30.12 850 25.1 12.2 53.9 22 -9 15.7
09:50 1020 30.12 850 25.1 11.9 53.4 22 -8.9 16.1
09:55 1020 30.12 850 25.1 11.3 52.4 23 -9.2 15.4
10:00 1020 30.12 849 25.07 12.4 54.3 21 -9.5 14.8
10:05 1020 30.12 849 25.07 12.8 55.1 20 -9.9 14.2
10:10 1020 30.12 849 25.07 13 55.3 20 -9.5 14.9
10:15 1020 30.12 849 25.07 13 55.4 20 -9.2 15.4
10:20 1020 30.12 849 25.07 12.7 54.9 20 -9.5 14.9
10:25 1020 30.12 849 25.07 12.9 55.3 21 -9.1 15.6
10:30 1020 30.12 849 25.07 13.6 56.5 20 -9 15.7
10:35 1020 30.12 849 25.07 14.2 57.6 19 -8.9 16
10:40 1020 30.12 849 25.07 13.3 55.9 21 -8.5 16.8
10:45 1020 30.12 849 25.07 13.8 56.8 20 -9 15.7
10:50 1020 30.12 849 25.07 14.1 57.4 20 -8.4 16.9
10:55 1020 30.12 849 25.07 13.7 56.7 20 -8.8 16.2
11:00 1020 30.12 849 25.07 14.5 58.1 18 -9.5 15
11:05 1020 30.12 849 25.07 14.6 58.3 18 -9.6 14.7
11:10 1020 30.12 849 25.07 14.7 58.4 18 -9.5 14.9
11:15 1019 30.09 849 25.07 14.7 58.4 16 -10.5 13.1
11:20 1019 30.09 849 25.07 15.3 59.5 18 -8.8 16.2
11:25 1019 30.09 848 25.04 14.6 58.3 19 -8.9 16
11:30 1019 30.09 848 25.04 14.8 58.7 17 -10.3 13.5
11:35 1019 30.09 848 25.04 14 57.3 18 -10.1 13.8
11:40 1019 30.09 848 25.04 14.8 58.6 17 -9.8 14.4
11:45 1019 30.09 848 25.04 15.1 59.2 18 -8.8 16.1
11:50 1019 30.09 848 25.04 16.1 61 18 -8 17.5
11:55 1019 30.09 848 25.04 16.1 60.9 17 -9.1 15.5
12:00 1019 30.09 848 25.04 15.1 59.2 18 -8.7 16.3
12:05 1019 30.09 848 25.04 14.8 58.7 19 -8.6 16.6
12:10 1019 30.09 848 25.04 15.2 59.3 18 -8.8 16.2
12:15 1018 30.06 848 25.04 15.7 60.2 17 -9.4 15
12:20 1018 30.06 848 25.04 16.8 62.2 17 -8.5 16.7
12:25 1018 30.06 848 25.04 16.6 61.9 17 -8.7 16.4
12:30 1018 30.06 847 25.01 16.7 62.1 17 -8.4 16.9
12:35 1018 30.06 847 25.01 17.2 62.9 16 -9.1 15.6
12:40 1018 30.06 847 25.01 17.2 62.9 15 -9.3 15.3
12:45 1018 30.06 847 25.01 16.2 61.2 17 -8.5 16.7
12:50 1018 30.06 847 25.01 16 60.8 15 -10.2 13.6
12:55 1018 30.06 847 25.01 17 62.5 15 -9.9 14.2
13:00 1018 30.06 847 25.01 17.1 62.8 15 -9.6 14.8
13:05 1018 30.06 847 25.01 16 60.8 17 -8.9 15.9
13:10 1017 30.03 847 25.01 16.2 61.1 17 -8.7 16.4
13:15 1017 30.03 847 25.01 17.3 63.1 16 -9.1 15.7
13:20 1017 30.03 846 24.98 17.3 63.2 15 -9.8 14.4
13:25 1017 30.03 846 24.98 17.4 63.3 15 -9.7 14.6
13:30 1017 30.03 846 24.98 17.1 62.9 15 -9.4 15
13:35 1017 30.03 846 24.98 17.5 63.6 14 -9.8 14.4
13:40 1017 30.03 846 24.98 17.7 63.8 14 -9.7 14.5
13:45 1017 30.03 846 24.98 17.5 63.4 14 -10.7 12.8
13:50 1017 30.03 846 24.98 17.5 63.4 14 -10.1 13.8
13:55 1017 30.03 846 24.98 17.4 63.3 13 -10.9 12.4
14:00 1017 30.03 846 24.98 18 64.5 14 -10 14
14:05 1017 30.03 846 24.98 18.2 64.7 14 -10.1 13.8
14:10 1017 30.03 846 24.98 18.2 64.8 12 -11.2 11.9
14:15 1017 30.03 846 24.98 18.4 65.2 13 -10.9 12.5
14:20 1017 30.03 846 24.98 18 64.4 13 -11.1 12
14:25 1017 30.03 846 24.98 18.5 65.3 13 -10.6 13
14:30 1017 30.03 846 24.98 18.6 65.4 13 -10.7 12.8
14:35 1017 30.03 846 24.98 17.7 63.9 13 -11.3 11.6
14:40 1016 30 846 24.98 18.6 65.5 13 -10.4 13.2
14:45 1016 30 845 24.95 19.1 66.3 12 -11.1 12.1
14:50 1016 30 845 24.95 18.8 65.8 11 -11.8 10.8
14:55 1016 30 845 24.95 19 66.2 12 -11.4 11.4
15:00 1016 30 845 24.95 19.3 66.7 12 -10.9 12.4
15:05 1016 30 845 24.95 18.8 65.9 12 -11.1 11.9
15:10 1016 30 845 24.95 18.2 64.8 12 -11.8 10.7
15:15 1016 30 845 24.95 18.4 65.1 12 -11.2 11.8
15:20 1016 30 845 24.95 18.5 65.3 12 -11.5 11.2
15:25 1016 30 845 24.95 18.4 65 12 -11.2 11.9
15:30 1016 30 845 24.95 18.1 64.6 12 -11.2 11.8
15:35 1016 30 845 24.95 18.3 64.9 12 -11.3 11.6
15:40 1016 30 845 24.95 18.3 64.9 12 -11.4 11.6
15:45 1016 30 845 24.95 17.9 64.2 12 -11.8 10.8
15:50 1015 29.97 845 24.95 17.3 63.2 12 -12.1 10.2
15:55 1015 29.97 845 24.95 17.7 63.9 13 -11.4 11.5
16:00 1015 29.97 845 24.95 17.9 64.1 12 -11.5 11.3
16:05 1015 29.97 845 24.95 17.7 63.9 12 -11.7 10.9
16:10 1015 29.97 845 24.95 17.9 64.3 12 -11.6 11.1
16:15 1015 29.97 845 24.95 18.1 64.6 12 -11.7 10.9
16:20 1015 29.97 845 24.95 17.9 64.3 13 -11 12.1
16:25 1015 29.97 844 24.92 18 64.5 12 -11.4 11.5
16:30 1015 29.97 844 24.92 17.8 64.1 12 -11.8 10.7
16:35 1015 29.97 844 24.92 17.8 64 12 -11.9 10.6
16:40 1015 29.97 844 24.92 17.8 64.1 12 -11.7 10.9
16:45 1015 29.97 844 24.92 17.6 63.7 12 -11.8 10.8
16:50 1015 29.97 844 24.92 17.7 63.9 12 -11.8 10.7
16:55 1015 29.97 844 24.92 17.7 63.8 13 -11.2 11.8
17:00 1015 29.97 844 24.92 17.3 63.2 13 -11.6 11.2
17:05 1015 29.97 844 24.92 17.2 63 13 -11.7 11
17:10 1015 29.97 844 24.92 17.3 63.2 13 -11.7 11
17:15 1015 29.97 844 24.92 17.2 63 12 -12.1 10.3
17:20 1015 29.97 844 24.92 17.2 62.9 13 -11.8 10.8
17:25 1015 29.97 844 24.92 17.1 62.8 13 -11.4 11.5
17:30 1015 29.97 844 24.92 16.8 62.2 13 -11.5 11.3
17:35 1015 29.97 844 24.92 16.4 61.6 14 -11.1 12
17:40 1015 29.97 844 24.92 16.4 61.5 14 -11.1 12.1
17:45 1015 29.97 844 24.92 16.3 61.4 13 -11.7 10.9
17:50 1015 29.97 844 24.92 16.5 61.7 14 -11.3 11.7
17:55 1015 29.97 844 24.92 16.4 61.6 14 -11.4 11.4
18:00 1015 29.97 844 24.92 16.3 61.3 14 -10.9 12.3
18:05 1015 29.97 844 24.92 16.1 60.9 15 -10.9 12.4
18:10 1015 29.97 844 24.92 16 60.9 14 -11.1 12.1
18:15 1015 29.97 844 24.92 16 60.7 15 -10.9 12.4
18:20 1015 29.97 844 24.92 15.9 60.6 15 -10.5 13.2
18:25 1015 29.97 844 24.92 15.8 60.5 15 -10.4 13.3
18:30 1015 29.97 844 24.92 15.7 60.3 17 -9.4 15.1
18:35 1015 29.97 844 24.92 15.6 60 15 -10.6 12.9
18:40 1015 29.97 844 24.92 15.4 59.8 17 -9.8 14.3
18:45 1015 29.97 844 24.92 15.4 59.7 15 -10.8 12.6
18:50 1015 29.97 844 24.92 15.2 59.4 16 -10.1 13.8
18:55 1015 29.97 844 24.92 15.2 59.3 17 -10.1 13.9
19:00 1014 29.94 844 24.92 15.1 59.1 17 -9.5 14.8
19:05 1014 29.94 844 24.92 15 59 17 -9.9 14.1
19:10 1014 29.94 844 24.92 15 58.9 17 -9.6 14.7
19:15 1014 29.94 844 24.92 14.5 58.2 18 -9.6 14.7
19:20 1014 29.94 844 24.92 14.4 57.9 19 -8.7 16.3
19:25 1014 29.94 844 24.92 14.4 57.9 19 -9.3 15.3
19:30 1014 29.94 844 24.92 14.3 57.7 19 -9.3 15.2
19:35 1014 29.94 844 24.92 14.3 57.7 19 -9 15.8
19:40 1014 29.94 844 24.92 14.2 57.6 18 -10.1 13.8
19:45 1014 29.94 844 24.92 14.4 57.9 18 -9.8 14.3
19:50 1014 29.94 843 24.89 14.2 57.6 18 -9.7 14.5
19:55 1014 29.94 843 24.89 14.1 57.4 18 -9.5 14.8
20:00 1014 29.94 843 24.89 14.1 57.3 18 -9.7 14.6
20:05 1014 29.94 843 24.89 14.1 57.3 19 -9.5 14.9
20:10 1014 29.94 843 24.89 14 57.2 19 -9.4 15.1
20:15 1014 29.94 843 24.89 13.9 57 19 -9.3 15.3
20:20 1014 29.94 843 24.89 13.9 57 19 -9 15.7
20:25 1014 29.94 843 24.89 14 57.3 19 -9.2 15.5
20:30 1014 29.94 843 24.89 14 57.3 19 -9 15.8
20:35 1014 29.94 843 24.89 14 57.3 20 -8.8 16.1
20:40 1014 29.94 843 24.89 14 57.2 19 -9.1 15.6
20:45 1014 29.94 843 24.89 14.4 57.9 18 -9.4 15.1
20:50 1014 29.94 843 24.89 14.4 57.9 18 -9.8 14.3
20:55 1014 29.94 843 24.89 14.8 58.6 17 -9.9 14.3
21:00 1014 29.94 843 24.89 14.6 58.3 18 -9.4 15
21:05 1014 29.94 843 24.89 14.5 58.2 18 -9.5 14.9
21:10 1014 29.94 843 24.89 14.4 57.9 18 -9.6 14.8
21:15 1014 29.94 843 24.89 14.4 57.8 18 -9.4 15.1
21:20 1014 29.94 843 24.89 14.2 57.6 18 -9.5 14.9
21:25 1014 29.94 843 24.89 14.2 57.5 18 -9.5 14.9
21:30 1014 29.94 843 24.89 14 57.3 19 -9.4 15
21:35 1014 29.94 843 24.89 13.9 57 19 -9.3 15.3
21:40 1013 29.91 843 24.89 13.8 56.9 19 -9.4 15.1
21:45 1013 29.91 843 24.89 13.8 56.8 19 -9.3 15.3
21:50 1013 29.91 843 24.89 13.7 56.6 20 -9.2 15.5
21:55 1013 29.91 843 24.89 13.6 56.5 20 -9.2 15.5
22:00 1013 29.91 842 24.86 13.6 56.5 20 -8.9 15.9
22:05 1013 29.91 842 24.86 13.6 56.5 20 -8.9 15.9
22:10 1013 29.91 843 24.89 13.7 56.6 19 -9.2 15.4
22:15 1013 29.91 842 24.86 14 57.1 19 -9 15.8
22:20 1013 29.91 842 24.86 13.8 56.8 20 -8.8 16.2
22:25 1013 29.91 842 24.86 13.7 56.6 20 -8.9 16
22:30 1013 29.91 842 24.86 13.6 56.5 20 -8.7 16.4
22:35 1013 29.91 842 24.86 13.4 56.2 20 -8.9 16
22:40 1013 29.91 842 24.86 13.3 55.9 21 -8.6 16.5
22:45 1013 29.91 842 24.86 13 55.4 22 -8.4 16.8
22:50 1013 29.91 842 24.86 12.8 55.1 22 -8.4 17
22:55 1013 29.91 842 24.86 12.7 54.8 22 -8.7 16.4
23:00 1013 29.91 842 24.86 12.9 55.3 21 -8.7 16.3
23:05 1013 29.91 842 24.86 13.2 55.8 21 -8.7 16.4
23:10 1013 29.91 842 24.86 13.3 56 20 -8.9 16
23:15 1012 29.88 842 24.86 13.4 56.1 20 -9 15.8
23:20 1012 29.88 842 24.86 14.1 57.3 19 -9.4 15.1
23:25 1012 29.88 842 24.86 14 57.2 20 -8.4 16.9
23:30 1012 29.88 841 24.83 14.1 57.3 18 -9.9 14.2
23:35 1012 29.88 841 24.83 14.2 57.5 19 -8.8 16.2
23:40 1012 29.88 841 24.83 13.8 56.8 20 -8.8 16.1
23:45 1012 29.88 841 24.83 13.6 56.4 20 -8.9 16.1
23:50 1012 29.88 841 24.83 13.7 56.7 20 -8.9 16
23:55 1012 29.88 841 24.83 13.6 56.5 20 -8.7 16.4
24:00 1012 29.88 841 24.83 13.6 56.4 20 -8.8 16.1